ROMMA est une association bénévole à but non lucratif. Votre soutien est indispensable : ADHERER à ROMMA ou FAIRE un DON

Val-d'Arly - (73, Savoie)

Beaufortain (2050 m)   Longitude: 06° 35' 21" E   Latitude: 45° 46' 53" N Station romma n°118
 

Détail journalier du     <<     >>

Température Precipitation Humidité Vent Dir Rafale Dir. rafale Ensol.
Heure (°C) (mm) (%) (km/h) (km/h) (min)
01:00 13.708016ONO27ONO0
02:00 13.208412O23ONO0
03:00 12.10907ENE16ONO0
04:00 12.708711SSE27S0
05:00 12.608715OSO24OSO0
06:00 12.808518O27O0
07:00 12.508718O24O0
08:00 12.608713O19ONO0
09:00 13.208114ONO24O20
10:00 14.207512ONO27ONO60
11:00 15.00706ONO18ONO30
12:00 14.80727ENE21ONO10
13:00 15.70694NNE11E0
14:00 17.20617NNE18NNE10
15:00 18.004611NNE29NNE40
16:00 18.205411N27NE60
17:00 18.105112N32N50
18:00 18.005512NNE32N60
19:00 18.205710NNE27NE60
20:00 16.706714NNE24NE30
21:00 15.807110NE19NE0
22:00 15.70684ENE10SO0
23:00 15.60705OSO10SO0
minuit 15.60694OSO6O0

Graphique du 21-07-2019

 

Serveur OMMA